createdAt,value
2023-02-18T00:01:53.691Z,7.63
2023-02-18T00:04:21.764Z,5.17
2023-02-18T00:06:51.207Z,2.97
2023-02-18T00:09:19.174Z,11.90
2023-02-18T00:11:47.192Z,9.17
2023-02-18T00:14:16.931Z,4.80
2023-02-18T00:16:45.857Z,7.63
2023-02-18T00:19:17.492Z,5.37
2023-02-18T00:21:46.102Z,3.33
2023-02-18T00:24:16.694Z,4.10
2023-02-18T00:26:45.007Z,4.40
2023-02-18T00:29:13.170Z,4.50
2023-02-18T00:31:42.446Z,9.43
2023-02-18T00:34:12.176Z,6.13
2023-02-18T00:36:40.554Z,3.37
2023-02-18T00:39:11.182Z,5.07
2023-02-18T00:41:41.017Z,2.83
2023-02-18T00:44:09.279Z,10.53
2023-02-18T00:46:37.657Z,5.80
2023-02-18T00:49:06.458Z,5.13
2023-02-18T00:51:34.938Z,8.23
2023-02-18T00:54:02.902Z,7.50
2023-02-18T00:56:30.952Z,3.83
2023-02-18T00:59:00.323Z,5.77
2023-02-18T01:01:29.055Z,6.07
2023-02-18T01:03:57.264Z,4.17
2023-02-18T01:06:25.259Z,8.17
2023-02-18T01:08:53.249Z,3.43
2023-02-18T01:11:21.475Z,3.83
2023-02-18T01:13:49.542Z,2.37
2023-02-18T01:16:19.114Z,5.63
2023-02-18T01:18:47.128Z,6.57
2023-02-18T01:21:15.217Z,11.70
2023-02-18T01:23:43.660Z,9.60
2023-02-18T01:26:12.378Z,6.77
2023-02-18T01:28:41.552Z,6.50
2023-02-18T01:31:12.616Z,10.00
2023-02-18T01:33:42.674Z,5.20
2023-02-18T01:36:11.986Z,9.63
2023-02-18T01:38:40.428Z,5.57
2023-02-18T01:41:08.537Z,7.47
2023-02-18T01:43:37.242Z,4.90
2023-02-18T01:46:09.600Z,3.53
2023-02-18T01:48:42.799Z,10.20
2023-02-18T01:51:14.586Z,3.20
2023-02-18T01:53:48.036Z,5.40
2023-02-18T01:56:21.651Z,5.77
2023-02-18T01:58:50.681Z,3.73
2023-02-18T02:01:18.839Z,4.17
2023-02-18T02:03:48.146Z,2.80
2023-02-18T02:06:18.309Z,1.37
2023-02-18T02:08:48.284Z,10.07
2023-02-18T02:11:24.876Z,3.37
2023-02-18T02:14:11.965Z,7.47
2023-02-18T02:16:48.827Z,3.93
2023-02-18T02:19:42.761Z,6.13
2023-02-18T02:22:28.191Z,3.00
2023-02-18T02:25:17.821Z,7.73
2023-02-18T02:28:08.680Z,2.77
2023-02-18T02:30:54.825Z,6.60
2023-02-18T02:33:54.688Z,4.00
2023-02-18T02:36:30.917Z,3.50
2023-02-18T02:39:09.137Z,2.47
2023-02-18T02:41:47.818Z,8.30
2023-02-18T02:44:22.337Z,4.63
2023-02-18T02:46:53.997Z,8.17
2023-02-18T02:49:33.974Z,3.17
2023-02-18T02:52:08.988Z,9.07
2023-02-18T02:54:37.147Z,11.77
2023-02-18T02:57:10.616Z,28.17
2023-02-18T02:59:42.905Z,14.40
2023-02-18T03:02:24.873Z,32.33
2023-02-18T03:05:02.962Z,27.73
2023-02-18T03:08:04.087Z,46.00
2023-02-18T03:10:59.531Z,28.77
2023-02-18T03:13:40.168Z,28.47
2023-02-18T03:16:17.675Z,25.27
2023-02-18T03:18:49.895Z,28.50
2023-02-18T03:21:24.871Z,3.20
2023-02-18T03:23:58.421Z,36.87
2023-02-18T03:26:28.667Z,33.67
2023-02-18T03:29:01.040Z,32.93
2023-02-18T03:31:31.627Z,31.93
2023-02-18T03:34:04.713Z,13.57
2023-02-18T03:36:34.771Z,11.17
2023-02-18T03:39:07.981Z,15.77
2023-02-18T03:41:36.737Z,12.97
2023-02-18T03:44:10.727Z,1.53
2023-02-18T03:46:40.996Z,14.07
2023-02-18T03:49:08.935Z,56.63
2023-02-18T03:51:36.887Z,57.23
2023-02-18T03:54:06.644Z,85.47
2023-02-18T03:56:34.876Z,40.60
2023-02-18T03:59:03.382Z,62.87
2023-02-18T04:01:31.567Z,96.20
2023-02-18T04:03:59.665Z,102.73
2023-02-18T04:06:27.762Z,114.17
2023-02-18T04:08:55.946Z,103.73
2023-02-18T04:11:25.359Z,113.37
2023-02-18T04:13:53.378Z,128.97
2023-02-18T04:16:21.394Z,115.23
2023-02-18T04:18:49.341Z,123.50
2023-02-18T04:21:17.305Z,129.27
2023-02-18T04:23:45.249Z,143.23
2023-02-18T04:26:13.233Z,131.80
2023-02-18T04:28:42.540Z,130.53
2023-02-18T04:31:11.709Z,122.63
2023-02-18T04:33:39.735Z,134.13
2023-02-18T04:36:09.120Z,123.03
2023-02-18T04:38:37.651Z,136.50
2023-02-18T04:41:06.048Z,143.93
2023-02-18T04:43:34.046Z,137.10
2023-02-18T04:46:03.400Z,141.73
2023-02-18T04:48:31.379Z,121.20
2023-02-18T04:50:59.393Z,117.67
2023-02-18T04:53:27.457Z,116.93
2023-02-18T04:55:55.829Z,118.03
2023-02-18T04:58:23.840Z,109.07
2023-02-18T05:00:53.291Z,132.50
2023-02-18T05:03:23.387Z,128.80
2023-02-18T05:05:51.357Z,137.10
2023-02-18T05:08:19.371Z,115.83
2023-02-18T05:10:47.334Z,102.73
2023-02-18T05:13:15.333Z,105.10
2023-02-18T05:15:43.347Z,78.73
2023-02-18T05:18:11.388Z,75.87
2023-02-18T05:20:40.744Z,123.07
2023-02-18T05:23:08.702Z,101.43
2023-02-18T05:25:36.693Z,90.57
2023-02-18T05:28:04.810Z,90.47
2023-02-18T05:30:32.816Z,122.20
2023-02-18T05:33:00.838Z,106.40
2023-02-18T05:35:28.834Z,127.63
2023-02-18T05:37:58.176Z,133.13
2023-02-18T05:40:26.128Z,137.53
2023-02-18T05:42:54.100Z,126.77
2023-02-18T05:45:22.131Z,106.43
2023-02-18T05:47:50.156Z,141.97
2023-02-18T05:50:18.508Z,140.70
2023-02-18T05:52:46.478Z,129.07
2023-02-18T05:55:15.883Z,136.87
2023-02-18T05:57:43.832Z,135.33
2023-02-18T06:00:13.030Z,134.87
2023-02-18T06:02:41.046Z,130.97
2023-02-18T06:05:09.446Z,131.47
2023-02-18T06:07:38.090Z,105.60
2023-02-18T06:10:07.351Z,132.57
2023-02-18T06:12:36.752Z,137.17
2023-02-18T06:15:05.084Z,135.07
2023-02-18T06:17:33.085Z,141.63
2023-02-18T06:20:01.076Z,145.23
2023-02-18T06:22:29.134Z,142.60
2023-02-18T06:24:57.107Z,138.47
2023-02-18T06:27:25.069Z,134.50
2023-02-18T06:29:54.410Z,147.23
2023-02-18T06:32:22.464Z,150.83
2023-02-18T06:34:50.505Z,139.27
2023-02-18T06:37:18.553Z,139.10
2023-02-18T06:39:46.530Z,135.43
2023-02-18T06:42:14.605Z,126.03
2023-02-18T06:44:42.747Z,152.20
2023-02-18T06:47:12.071Z,147.67
2023-02-18T06:49:41.123Z,154.30
2023-02-18T06:52:09.105Z,142.80
2023-02-18T06:54:37.076Z,142.60
2023-02-18T06:57:05.132Z,133.17
2023-02-18T06:59:33.143Z,145.83
2023-02-18T07:02:01.116Z,123.83
2023-02-18T07:04:33.191Z,131.43
2023-02-18T07:07:01.163Z,129.97
2023-02-18T07:09:29.097Z,131.97
2023-02-18T07:11:57.074Z,142.93
2023-02-18T07:14:26.456Z,124.53
2023-02-18T07:16:54.396Z,120.90
2023-02-18T07:19:22.412Z,109.53
2023-02-18T07:21:51.752Z,124.10
2023-02-18T07:24:19.696Z,102.87
2023-02-18T07:26:47.648Z,108.83
2023-02-18T07:29:15.628Z,91.20
2023-02-18T07:31:43.661Z,76.57
2023-02-18T07:34:11.679Z,106.30
2023-02-18T07:36:39.668Z,109.80
2023-02-18T07:39:09.115Z,102.67
2023-02-18T07:41:37.112Z,100.33
2023-02-18T07:44:05.643Z,112.30
2023-02-18T07:46:33.596Z,125.40
2023-02-18T07:49:01.563Z,118.33
2023-02-18T07:51:29.529Z,112.70
2023-02-18T07:53:57.480Z,111.87
2023-02-18T07:56:26.876Z,101.47
2023-02-18T07:58:54.830Z,109.20
2023-02-18T08:01:22.890Z,107.27
2023-02-18T08:03:50.858Z,98.40
2023-02-18T08:06:25.345Z,113.47
2023-02-18T08:08:53.284Z,69.33
2023-02-18T08:11:21.332Z,86.93
2023-02-18T08:13:50.945Z,77.83
2023-02-18T08:16:21.005Z,89.07
2023-02-18T08:18:49.736Z,82.73
2023-02-18T08:21:18.696Z,55.93
2023-02-18T08:23:47.022Z,65.47
2023-02-18T08:26:15.514Z,77.33
2023-02-18T08:28:44.111Z,71.90
2023-02-18T08:31:19.620Z,23.60
2023-02-18T08:33:47.861Z,50.37
2023-02-18T08:36:16.197Z,70.70
2023-02-18T08:38:44.213Z,74.87
2023-02-18T08:41:14.499Z,71.00
2023-02-18T08:43:42.892Z,44.13
2023-02-18T08:46:15.730Z,34.27
2023-02-18T08:48:46.264Z,38.20
2023-02-18T08:51:15.701Z,39.03
2023-02-18T08:53:44.328Z,33.33
2023-02-18T08:56:13.256Z,58.43
2023-02-18T08:58:41.692Z,61.80
2023-02-18T09:01:11.908Z,57.90
2023-02-18T09:03:40.795Z,53.50
2023-02-18T09:06:10.651Z,60.17
2023-02-18T09:08:38.638Z,65.20
2023-02-18T09:11:08.157Z,82.87
2023-02-18T09:13:36.689Z,69.07
2023-02-18T09:16:06.706Z,86.97
2023-02-18T09:18:36.508Z,73.10
2023-02-18T09:21:07.862Z,74.63
2023-02-18T09:23:37.960Z,63.07
2023-02-18T09:26:07.171Z,53.43
2023-02-18T09:28:35.190Z,74.70
2023-02-18T09:31:06.950Z,49.93
2023-02-18T09:33:37.269Z,28.97
2023-02-18T09:36:06.189Z,30.30
2023-02-18T09:38:34.460Z,32.08
2023-02-18T09:41:08.339Z,32.70
2023-02-18T09:43:41.601Z,30.23
2023-02-18T09:46:20.798Z,40.80
2023-02-18T09:48:49.871Z,49.80
2023-02-18T09:51:18.966Z,43.63
2023-02-18T09:53:47.773Z,50.03
2023-02-18T09:56:23.625Z,50.63
2023-02-18T09:58:52.909Z,49.27
2023-02-18T10:01:28.432Z,50.27
2023-02-18T10:03:59.227Z,52.03
2023-02-18T10:06:31.811Z,41.53
2023-02-18T10:09:03.796Z,44.23
2023-02-18T10:11:38.908Z,76.57
2023-02-18T10:14:11.865Z,87.67
2023-02-18T10:16:39.977Z,38.43
2023-02-18T10:19:21.034Z,64.13
2023-02-18T10:21:49.727Z,56.30
2023-02-18T10:24:26.815Z,50.93
2023-02-18T10:26:56.593Z,83.55
2023-02-18T10:29:25.190Z,80.90
2023-02-18T10:31:57.324Z,73.27
2023-02-18T10:34:39.309Z,45.20
2023-02-18T10:37:14.552Z,43.37
2023-02-18T10:39:53.928Z,47.13
2023-02-18T10:42:35.108Z,38.43
2023-02-18T10:45:15.992Z,46.40
2023-02-18T10:47:53.767Z,44.33
2023-02-18T10:50:29.430Z,54.40
2023-02-18T10:53:09.463Z,34.73
2023-02-18T10:55:39.322Z,45.27
2023-02-18T10:58:27.092Z,37.30
2023-02-18T11:00:55.415Z,39.50
2023-02-18T11:03:25.148Z,39.40
2023-02-18T11:05:55.853Z,45.50
2023-02-18T11:08:32.211Z,51.93
2023-02-18T11:11:10.236Z,56.70
2023-02-18T11:13:42.617Z,66.33
2023-02-18T11:16:14.449Z,47.27
2023-02-18T11:18:46.511Z,60.10
2023-02-18T11:21:26.352Z,42.23
2023-02-18T11:23:56.853Z,25.60
2023-02-18T11:26:29.539Z,37.90
2023-02-18T11:29:04.283Z,40.63
2023-02-18T11:31:41.895Z,67.60
2023-02-18T11:34:17.552Z,48.30
2023-02-18T11:36:46.033Z,65.73
2023-02-18T11:39:22.590Z,54.90
2023-02-18T11:41:56.958Z,52.27
2023-02-18T11:44:30.456Z,58.27
2023-02-18T11:47:00.883Z,57.47
2023-02-18T11:49:29.875Z,1.93
2023-02-18T11:52:05.651Z,50.73
2023-02-18T11:54:36.001Z,2.77
2023-02-18T11:57:06.676Z,6.13
2023-02-18T11:59:38.696Z,47.17
2023-02-18T12:02:28.998Z,6.27
2023-02-18T12:05:02.512Z,3.93
2023-02-18T12:07:35.555Z,1.33
2023-02-18T12:10:12.081Z,1.90
2023-02-18T12:12:47.315Z,4.87
2023-02-18T12:15:21.242Z,1.67
2023-02-18T12:18:19.723Z,1.90
2023-02-18T12:21:12.632Z,1.30
2023-02-18T12:23:52.920Z,3.13
2023-02-18T12:26:28.053Z,1.87
2023-02-18T12:29:10.202Z,1.90
2023-02-18T12:31:52.695Z,2.10
2023-02-18T12:34:33.600Z,12.40
2023-02-18T12:37:12.895Z,19.33
2023-02-18T12:40:02.467Z,3.33
2023-02-18T12:42:47.276Z,11.23
2023-02-18T12:45:31.380Z,10.13
2023-02-18T12:48:21.307Z,16.97
2023-02-18T12:51:11.198Z,4.67
2023-02-18T12:53:56.948Z,1.67
2023-02-18T12:57:03.311Z,1.50
2023-02-18T12:59:56.524Z,1.37
2023-02-18T13:02:42.669Z,2.50
2023-02-18T13:05:18.974Z,3.07
2023-02-18T13:07:56.189Z,2.47
2023-02-18T13:10:54.360Z,3.07
2023-02-18T13:13:25.734Z,7.90
2023-02-18T13:15:58.009Z,27.10
2023-02-18T13:18:31.414Z,31.05
2023-02-18T13:21:05.761Z,3.40
2023-02-18T13:23:38.799Z,13.90
2023-02-18T13:26:11.051Z,8.97
2023-02-18T13:28:45.684Z,31.85
2023-02-18T13:31:28.846Z,7.87
2023-02-18T13:34:03.513Z,33.57
2023-02-18T13:36:48.310Z,6.70
2023-02-18T13:39:20.498Z,23.53
2023-02-18T13:41:51.601Z,31.38
2023-02-18T13:44:57.281Z,12.80
2023-02-18T13:47:39.585Z,33.37
2023-02-18T13:50:41.610Z,41.47
2023-02-18T13:53:23.498Z,50.20
2023-02-18T13:56:03.757Z,28.77
2023-02-18T13:58:37.348Z,33.10
2023-02-18T14:01:12.788Z,43.13
2023-02-18T14:04:01.174Z,44.77
2023-02-18T14:06:32.411Z,53.00
2023-02-18T14:09:21.146Z,43.33
2023-02-18T14:11:50.408Z,69.03
2023-02-18T14:14:45.763Z,89.07
2023-02-18T14:17:32.562Z,82.13
2023-02-18T14:20:34.010Z,108.77
2023-02-18T14:23:02.057Z,97.40
2023-02-18T14:25:41.781Z,96.93
2023-02-18T14:28:39.889Z,99.07
2023-02-18T14:31:29.813Z,118.97
2023-02-18T14:34:30.101Z,141.93
2023-02-18T14:37:14.562Z,104.00
2023-02-18T14:39:55.263Z,101.50
2023-02-18T14:42:35.891Z,102.67
2023-02-18T14:45:14.403Z,103.63
2023-02-18T14:47:57.136Z,114.00
2023-02-18T14:50:26.136Z,128.50
2023-02-18T14:53:00.574Z,117.90
2023-02-18T14:55:33.214Z,132.50
2023-02-18T14:58:04.505Z,124.27
2023-02-18T15:00:36.339Z,145.63
2023-02-18T15:03:04.363Z,150.63
2023-02-18T15:05:33.672Z,150.47
2023-02-18T15:08:03.513Z,154.23
2023-02-18T15:10:42.980Z,157.67
2023-02-18T15:13:19.056Z,155.27
2023-02-18T15:15:49.974Z,134.23
2023-02-18T15:18:24.148Z,9.23
2023-02-18T15:20:52.657Z,90.20
2023-02-18T15:23:20.975Z,2.10
2023-02-18T15:25:52.307Z,14.07
2023-02-18T15:28:27.223Z,1.20
2023-02-18T15:30:57.514Z,5.60
2023-02-18T15:33:26.560Z,0.98
2023-02-18T15:36:02.075Z,0.67
2023-02-18T15:38:30.423Z,0.40
2023-02-18T15:40:59.362Z,0.77
2023-02-18T15:43:28.712Z,0.33
2023-02-18T15:45:58.840Z,0.40
2023-02-18T15:48:33.395Z,0.60
2023-02-18T15:51:16.258Z,6.03
2023-02-18T15:53:48.918Z,0.73
2023-02-18T15:56:22.576Z,0.30
2023-02-18T15:58:51.922Z,0.63
2023-02-18T16:01:28.974Z,0.50
2023-02-18T16:03:57.751Z,0.90
2023-02-18T16:06:28.144Z,0.63
2023-02-18T16:09:01.625Z,0.77
2023-02-18T16:11:33.568Z,0.97
2023-02-18T16:14:02.987Z,0.70
2023-02-18T16:16:33.538Z,1.67
2023-02-18T16:19:02.016Z,0.50
2023-02-18T16:21:38.745Z,0.43
2023-02-18T16:24:25.530Z,1.47
2023-02-18T16:26:55.421Z,0.67
2023-02-18T16:29:26.743Z,0.70
2023-02-18T16:31:54.750Z,0.80
2023-02-18T16:34:22.727Z,3.33
2023-02-18T16:37:08.169Z,2.03
2023-02-18T16:39:36.919Z,1.90
2023-02-18T16:42:06.697Z,1.17
2023-02-18T16:44:35.987Z,0.90
2023-02-18T16:47:04.295Z,0.50
2023-02-18T16:49:32.579Z,1.20
2023-02-18T16:52:02.510Z,1.20
2023-02-18T16:54:30.474Z,0.83
2023-02-18T16:56:58.464Z,1.00
2023-02-18T16:59:26.776Z,1.20
2023-02-18T17:01:56.827Z,1.50
2023-02-18T17:04:24.892Z,0.80
2023-02-18T17:06:53.134Z,1.07
2023-02-18T17:09:22.869Z,1.27
2023-02-18T17:11:53.092Z,1.00
2023-02-18T17:14:22.586Z,0.60
2023-02-18T17:16:53.896Z,1.23
2023-02-18T17:19:23.279Z,1.57
2023-02-18T17:21:51.260Z,1.37
2023-02-18T17:24:20.043Z,1.23
2023-02-18T17:26:48.024Z,1.20
2023-02-18T17:29:16.001Z,0.60
2023-02-18T17:31:47.199Z,1.53
2023-02-18T17:34:18.731Z,1.10
2023-02-18T17:36:48.073Z,0.60
2023-02-18T17:39:18.348Z,1.23
2023-02-18T17:41:46.394Z,1.17
2023-02-18T17:44:16.660Z,0.87
2023-02-18T17:46:44.828Z,1.00
2023-02-18T17:49:13.013Z,1.13
2023-02-18T17:51:41.117Z,0.87
2023-02-18T17:54:14.620Z,1.03
2023-02-18T17:56:43.381Z,1.20
2023-02-18T17:59:11.370Z,0.83
2023-02-18T18:01:39.685Z,1.53
2023-02-18T18:04:12.622Z,0.80
2023-02-18T18:06:40.657Z,1.40
2023-02-18T18:09:08.630Z,1.13
2023-02-18T18:11:38.929Z,1.97
2023-02-18T18:14:07.640Z,0.93
2023-02-18T18:16:35.643Z,1.57
2023-02-18T18:19:03.724Z,0.80
2023-02-18T18:21:34.472Z,1.13
2023-02-18T18:24:02.815Z,1.13
2023-02-18T18:26:30.994Z,1.57
2023-02-18T18:29:00.359Z,1.30
2023-02-18T18:31:28.389Z,1.80
2023-02-18T18:33:57.196Z,2.20
2023-02-18T18:36:25.168Z,1.17
2023-02-18T18:38:53.413Z,1.30
2023-02-18T18:41:23.476Z,3.10
2023-02-18T18:43:51.713Z,1.30
2023-02-18T18:46:21.212Z,1.20
2023-02-18T18:48:49.212Z,1.30
2023-02-18T18:51:19.620Z,1.37
2023-02-18T18:53:47.654Z,1.60
2023-02-18T18:56:15.698Z,1.20
2023-02-18T18:58:43.695Z,1.20
2023-02-18T19:01:16.189Z,1.10
2023-02-18T19:03:46.262Z,2.67
2023-02-18T19:06:15.938Z,4.80
2023-02-18T19:08:45.214Z,2.57
2023-02-18T19:11:13.895Z,4.80
2023-02-18T19:13:41.937Z,2.67
2023-02-18T19:16:17.771Z,2.80
2023-02-18T19:18:47.757Z,2.03
2023-02-18T19:21:16.670Z,2.13
2023-02-18T19:23:44.786Z,1.37
2023-02-18T19:26:15.738Z,3.70
2023-02-18T19:28:43.878Z,1.80
2023-02-18T19:31:12.340Z,1.73
2023-02-18T19:33:40.652Z,2.53
2023-02-18T19:36:11.764Z,1.67
2023-02-18T19:38:40.042Z,1.93
2023-02-18T19:41:09.485Z,1.37
2023-02-18T19:43:37.615Z,1.40
2023-02-18T19:46:10.175Z,1.43
2023-02-18T19:48:38.478Z,2.13
2023-02-18T19:51:07.574Z,1.00
2023-02-18T19:53:37.148Z,1.50
2023-02-18T19:56:07.443Z,1.60
2023-02-18T19:58:35.972Z,3.10
2023-02-18T20:01:04.224Z,1.60
2023-02-18T20:03:32.183Z,1.57
2023-02-18T20:06:00.179Z,1.87
2023-02-18T20:08:28.129Z,1.20
2023-02-18T20:11:00.686Z,1.10
2023-02-18T20:13:28.756Z,1.47
2023-02-18T20:15:56.842Z,1.10
2023-02-18T20:18:24.827Z,1.50
2023-02-18T20:20:52.937Z,1.53
2023-02-18T20:23:20.943Z,0.80
2023-02-18T20:25:49.001Z,1.27
2023-02-18T20:28:18.352Z,1.20
2023-02-18T20:30:46.373Z,1.27
2023-02-18T20:33:14.330Z,1.30
2023-02-18T20:35:42.400Z,1.40
2023-02-18T20:38:10.404Z,1.20
2023-02-18T20:40:38.402Z,2.47
2023-02-18T20:43:06.481Z,1.80
2023-02-18T20:45:35.933Z,1.63
2023-02-18T20:48:03.943Z,1.30
2023-02-18T20:50:31.899Z,1.60
2023-02-18T20:52:59.865Z,1.53
2023-02-18T20:55:27.899Z,2.40
2023-02-18T20:57:55.870Z,1.80
2023-02-18T21:00:23.845Z,2.27
2023-02-18T21:02:53.179Z,2.63
2023-02-18T21:05:21.155Z,1.40
2023-02-18T21:07:49.127Z,1.33
2023-02-18T21:10:17.189Z,1.40
2023-02-18T21:12:45.230Z,2.20
2023-02-18T21:15:13.260Z,2.27
2023-02-18T21:17:41.334Z,1.60
2023-02-18T21:20:11.308Z,2.13
2023-02-18T21:22:39.277Z,1.67
2023-02-18T21:25:08.424Z,1.57
2023-02-18T21:27:36.401Z,1.83
2023-02-18T21:30:05.773Z,1.57
2023-02-18T21:32:33.815Z,2.27
2023-02-18T21:35:01.777Z,1.43
2023-02-18T21:37:31.124Z,0.93
2023-02-18T21:40:00.365Z,2.00
2023-02-18T21:42:28.378Z,1.40
2023-02-18T21:44:56.414Z,2.47
2023-02-18T21:47:24.678Z,2.00
2023-02-18T21:49:52.619Z,1.87
2023-02-18T21:52:20.644Z,1.70
2023-02-18T21:54:53.315Z,1.93
2023-02-18T21:57:22.448Z,1.80
2023-02-18T21:59:50.427Z,1.63
2023-02-18T22:02:20.943Z,1.80
2023-02-18T22:04:49.776Z,1.50
2023-02-18T22:07:18.929Z,2.13
2023-02-18T22:09:48.634Z,1.83
2023-02-18T22:12:18.573Z,2.30
2023-02-18T22:14:46.702Z,2.40
2023-02-18T22:17:16.062Z,14.40
2023-02-18T22:19:44.408Z,4.70
2023-02-18T22:22:12.809Z,2.70
2023-02-18T22:24:40.783Z,3.13
2023-02-18T22:27:08.804Z,2.03
2023-02-18T22:29:38.193Z,2.20
2023-02-18T22:32:06.254Z,2.03
2023-02-18T22:34:34.410Z,2.87
2023-02-18T22:37:02.376Z,1.67
2023-02-18T22:39:30.357Z,1.50
2023-02-18T22:41:58.368Z,2.93
2023-02-18T22:44:27.297Z,3.63
2023-02-18T22:46:57.688Z,2.50
2023-02-18T22:49:26.194Z,4.17
2023-02-18T22:51:55.211Z,1.97
2023-02-18T22:54:23.411Z,2.23
2023-02-18T22:56:51.391Z,2.50
2023-02-18T22:59:20.216Z,3.33
2023-02-18T23:01:50.397Z,2.03
2023-02-18T23:04:21.422Z,1.40
2023-02-18T23:06:49.785Z,3.37
2023-02-18T23:09:19.747Z,1.37
2023-02-18T23:11:51.236Z,1.20
2023-02-18T23:14:19.542Z,1.30
2023-02-18T23:17:05.864Z,5.63
2023-02-18T23:19:36.870Z,1.83
2023-02-18T23:22:05.033Z,1.90
2023-02-18T23:24:34.176Z,1.07
2023-02-18T23:27:02.360Z,2.50
2023-02-18T23:29:30.340Z,2.93
2023-02-18T23:31:58.742Z,1.53
2023-02-18T23:34:26.690Z,3.10
2023-02-18T23:36:56.034Z,2.00
2023-02-18T23:39:24.358Z,1.13
2023-02-18T23:41:53.316Z,1.30
2023-02-18T23:44:22.857Z,2.33
2023-02-18T23:46:50.952Z,3.50
2023-02-18T23:49:22.036Z,2.27
2023-02-18T23:51:50.348Z,1.60
2023-02-18T23:54:20.061Z,2.07
2023-02-18T23:56:48.539Z,3.80
2023-02-18T23:59:16.902Z,1.03
